Bowerman Airport
KHQM : rendu visible

Aérodrome :











RETROUVEZ-NOUS SUR...

 
LOGIN :

S'inscrire | Disclaimer

   EN    FR    IT 

 









Légende :    VFR   VFR Marginal   IFR   IFR Intensif   IFR Très Intensif
Visi : 
Plafond : 
>= 8 km
>= 3000ft
5 à 8 km
1000 à 3000 ft
1500m à 5 km
500 à 1000 ft
800 à 1500m
200 à 500 ft
< 800m
< 200 ft
Symboles :   Orages  Brouillard  Fortes neiges  Fortes précipitations  Vent > 20 kt






- Altitude de l'aérodrome : 18 ft


KHQM - Bowerman

DERNIER METAR :
  • 121053Z AUTO 08007KT 10SM -RA BKN060 OVC075 09/09 A3004 RMK AO2 RAB47 SLP176 P0000 T00940089

METARs EXPIRÉS :
  • 120953Z AUTO 09007KT 10SM BKN060 OVC095 09/09 A3006 RMK AO2 SLP182 T00940089
  • 120853Z AUTO 10004KT 10SM OVC065 09/09 A3008 RMK AO2 SLP189 T00890089 56007

TAF KHQM
Valide du 12 à 12h jusqu'au 13 à 12h UTC


121127Z 1212/1312 08008KT 6SM -RA BR SCT020 OVC040
TEMPO 1212/1216 5SM -RA BR BKN018 OVC030
FM121600 07005KT 4SM -RA BR BKN015 OVC025
FM122000 29003KT 5SM BR VCSH OVC020
FM130300 VRB03KT 5SM BR OVC015
FM130900 VRB03KT 4SM BR OVC008



MET'MAP, la Météo Aéronautique d'un coup d'oeil ! - Copyright ORBIFLY Décembre 2007 - Disclaimer

ORBIFLY MET'MAP TEAM :

Programmation & Développement : Alexandra Zaïnal
Conception & Développement : Baudouin d'Aumeries
Co-Programmation & Développement : Marc-Olivier Méhu
Soutien technique & logistique : Manuel Goepfert

Contact : metmap@orbifly.com




SOURCES & CREDITS :

   NOAA       Earth
Advisory